sensor_id;sensor_type;location;lat;lon;timestamp;P1;durP1;ratioP1;P2;durP2;ratioP2
71937;SDS011;59810;48.800;9.086;2022-07-24T00:00:42;11.53;;;6.40;;
71937;SDS011;59810;48.800;9.086;2022-07-24T00:03:07;10.13;;;6.43;;
71937;SDS011;59810;48.800;9.086;2022-07-24T00:05:33;10.80;;;6.87;;
71937;SDS011;59810;48.800;9.086;2022-07-24T00:07:58;8.67;;;5.70;;
71937;SDS011;59810;48.800;9.086;2022-07-24T00:10:23;9.77;;;6.70;;
71937;SDS011;59810;48.800;9.086;2022-07-24T00:12:49;11.10;;;6.25;;
71937;SDS011;59810;48.800;9.086;2022-07-24T00:15:15;10.57;;;6.60;;
71937;SDS011;59810;48.800;9.086;2022-07-24T00:17:40;9.88;;;6.70;;
71937;SDS011;59810;48.800;9.086;2022-07-24T00:20:08;10.18;;;6.63;;
71937;SDS011;59810;48.800;9.086;2022-07-24T00:22:35;9.20;;;6.40;;
71937;SDS011;59810;48.800;9.086;2022-07-24T00:25:00;11.75;;;6.90;;
71937;SDS011;59810;48.800;9.086;2022-07-24T00:27:26;8.93;;;6.20;;
71937;SDS011;59810;48.800;9.086;2022-07-24T00:29:51;8.80;;;6.40;;
71937;SDS011;59810;48.800;9.086;2022-07-24T00:32:17;11.50;;;6.57;;
71937;SDS011;59810;48.800;9.086;2022-07-24T00:34:42;8.97;;;6.23;;
71937;SDS011;59810;48.800;9.086;2022-07-24T00:37:08;11.73;;;6.13;;
71937;SDS011;59810;48.800;9.086;2022-07-24T00:39:33;9.83;;;6.50;;
71937;SDS011;59810;48.800;9.086;2022-07-24T00:41:59;10.30;;;6.47;;
71937;SDS011;59810;48.800;9.086;2022-07-24T00:44:24;9.60;;;6.00;;
71937;SDS011;59810;48.800;9.086;2022-07-24T00:46:49;11.17;;;6.40;;
71937;SDS011;59810;48.800;9.086;2022-07-24T00:49:16;10.02;;;6.60;;
71937;SDS011;59810;48.800;9.086;2022-07-24T00:51:43;9.67;;;6.60;;
71937;SDS011;59810;48.800;9.086;2022-07-24T00:54:11;9.43;;;6.10;;
71937;SDS011;59810;48.800;9.086;2022-07-24T00:56:43;9.57;;;6.50;;
71937;SDS011;59810;48.800;9.086;2022-07-24T00:59:09;10.90;;;7.05;;
71937;SDS011;59810;48.800;9.086;2022-07-24T01:01:37;11.68;;;6.85;;
71937;SDS011;59810;48.800;9.086;2022-07-24T01:04:02;11.77;;;8.13;;
71937;SDS011;59810;48.800;9.086;2022-07-24T01:06:30;12.38;;;8.25;;
71937;SDS011;59810;48.800;9.086;2022-07-24T01:08:56;14.03;;;9.63;;
71937;SDS011;59810;48.800;9.086;2022-07-24T01:11:21;14.00;;;8.77;;
71937;SDS011;59810;48.800;9.086;2022-07-24T01:13:48;12.75;;;8.45;;
71937;SDS011;59810;48.800;9.086;2022-07-24T01:16:16;13.40;;;8.95;;
71937;SDS011;59810;48.800;9.086;2022-07-24T01:18:45;12.18;;;8.55;;
71937;SDS011;59810;48.800;9.086;2022-07-24T01:21:10;12.30;;;8.53;;
71937;SDS011;59810;48.800;9.086;2022-07-24T01:23:35;12.07;;;7.50;;
71937;SDS011;59810;48.800;9.086;2022-07-24T01:26:01;11.87;;;7.90;;
71937;SDS011;59810;48.800;9.086;2022-07-24T01:28:27;11.45;;;7.50;;
71937;SDS011;59810;48.800;9.086;2022-07-24T01:30:53;9.77;;;7.03;;
71937;SDS011;59810;48.800;9.086;2022-07-24T01:33:18;9.98;;;6.88;;
71937;SDS011;59810;48.800;9.086;2022-07-24T01:35:44;10.63;;;7.50;;
71937;SDS011;59810;48.800;9.086;2022-07-24T01:38:10;11.95;;;7.07;;
71937;SDS011;59810;48.800;9.086;2022-07-24T01:40:38;10.68;;;6.80;;
71937;SDS011;59810;48.800;9.086;2022-07-24T01:43:04;10.30;;;7.00;;
71937;SDS011;59810;48.800;9.086;2022-07-24T01:45:30;10.43;;;7.22;;
71937;SDS011;59810;48.800;9.086;2022-07-24T01:47:55;10.30;;;7.70;;
71937;SDS011;59810;48.800;9.086;2022-07-24T01:50:21;11.03;;;7.47;;
71937;SDS011;59810;48.800;9.086;2022-07-24T01:52:46;9.65;;;6.55;;
71937;SDS011;59810;48.800;9.086;2022-07-24T01:55:12;10.80;;;7.43;;
71937;SDS011;59810;48.800;9.086;2022-07-24T01:57:37;9.77;;;6.30;;
71937;SDS011;59810;48.800;9.086;2022-07-24T02:00:04;8.60;;;6.17;;
71937;SDS011;59810;48.800;9.086;2022-07-24T02:02:36;9.52;;;6.03;;
71937;SDS011;59810;48.800;9.086;2022-07-24T02:05:01;10.20;;;5.80;;
71937;SDS011;59810;48.800;9.086;2022-07-24T02:07:26;9.60;;;5.63;;
71937;SDS011;59810;48.800;9.086;2022-07-24T02:09:54;9.77;;;5.67;;
71937;SDS011;59810;48.800;9.086;2022-07-24T02:12:20;9.73;;;5.95;;
71937;SDS011;59810;48.800;9.086;2022-07-24T02:14:47;9.53;;;5.70;;
71937;SDS011;59810;48.800;9.086;2022-07-24T02:17:13;9.90;;;5.85;;
71937;SDS011;59810;48.800;9.086;2022-07-24T02:19:38;11.27;;;6.30;;
71937;SDS011;59810;48.800;9.086;2022-07-24T02:22:06;9.93;;;6.30;;
71937;SDS011;59810;48.800;9.086;2022-07-24T02:24:31;11.33;;;6.20;;
71937;SDS011;59810;48.800;9.086;2022-07-24T02:26:57;11.17;;;6.43;;
71937;SDS011;59810;48.800;9.086;2022-07-24T02:29:22;8.77;;;6.47;;
71937;SDS011;59810;48.800;9.086;2022-07-24T02:31:48;10.47;;;6.57;;
71937;SDS011;59810;48.800;9.086;2022-07-24T02:34:13;11.80;;;6.57;;
71937;SDS011;59810;48.800;9.086;2022-07-24T02:36:38;9.30;;;5.80;;
71937;SDS011;59810;48.800;9.086;2022-07-24T02:39:06;9.13;;;6.30;;
71937;SDS011;59810;48.800;9.086;2022-07-24T02:41:34;10.18;;;6.32;;
71937;SDS011;59810;48.800;9.086;2022-07-24T02:44:01;10.30;;;6.30;;
71937;SDS011;59810;48.800;9.086;2022-07-24T02:46:27;12.38;;;6.95;;
71937;SDS011;59810;48.800;9.086;2022-07-24T02:48:53;10.63;;;7.10;;
71937;SDS011;59810;48.800;9.086;2022-07-24T02:51:18;10.60;;;6.70;;
71937;SDS011;59810;48.800;9.086;2022-07-24T02:53:43;9.30;;;5.90;;
71937;SDS011;59810;48.800;9.086;2022-07-24T02:56:11;11.15;;;6.22;;
71937;SDS011;59810;48.800;9.086;2022-07-24T02:58:36;11.37;;;6.20;;
71937;SDS011;59810;48.800;9.086;2022-07-24T03:01:02;11.00;;;6.60;;
71937;SDS011;59810;48.800;9.086;2022-07-24T03:03:27;10.80;;;6.40;;
71937;SDS011;59810;48.800;9.086;2022-07-24T03:05:52;10.40;;;6.47;;
71937;SDS011;59810;48.800;9.086;2022-07-24T03:08:20;10.82;;;6.30;;
71937;SDS011;59810;48.800;9.086;2022-07-24T03:10:45;8.67;;;6.10;;
71937;SDS011;59810;48.800;9.086;2022-07-24T03:13:11;9.32;;;5.97;;
71937;SDS011;59810;48.800;9.086;2022-07-24T03:15:37;9.17;;;5.73;;
71937;SDS011;59810;48.800;9.086;2022-07-24T03:18:02;12.95;;;6.00;;
71937;SDS011;59810;48.800;9.086;2022-07-24T03:20:35;9.83;;;5.80;;
71937;SDS011;59810;48.800;9.086;2022-07-24T03:23:03;9.73;;;5.93;;
71937;SDS011;59810;48.800;9.086;2022-07-24T03:25:29;10.87;;;6.33;;
71937;SDS011;59810;48.800;9.086;2022-07-24T03:27:54;10.57;;;6.38;;
71937;SDS011;59810;48.800;9.086;2022-07-24T03:30:20;10.87;;;6.07;;
71937;SDS011;59810;48.800;9.086;2022-07-24T03:32:45;10.53;;;6.63;;
71937;SDS011;59810;48.800;9.086;2022-07-24T03:35:11;9.70;;;6.30;;
71937;SDS011;59810;48.800;9.086;2022-07-24T03:37:36;9.00;;;5.80;;
71937;SDS011;59810;48.800;9.086;2022-07-24T03:40:02;9.87;;;6.23;;
71937;SDS011;59810;48.800;9.086;2022-07-24T03:42:28;9.55;;;6.28;;
71937;SDS011;59810;48.800;9.086;2022-07-24T03:44:56;9.98;;;5.97;;
71937;SDS011;59810;48.800;9.086;2022-07-24T03:47:21;10.60;;;6.00;;
71937;SDS011;59810;48.800;9.086;2022-07-24T03:49:46;8.97;;;5.73;;
71937;SDS011;59810;48.800;9.086;2022-07-24T03:52:12;10.97;;;6.37;;
71937;SDS011;59810;48.800;9.086;2022-07-24T03:54:37;10.68;;;6.38;;
71937;SDS011;59810;48.800;9.086;2022-07-24T03:57:03;10.77;;;6.47;;
71937;SDS011;59810;48.800;9.086;2022-07-24T03:59:29;10.10;;;6.07;;
71937;SDS011;59810;48.800;9.086;2022-07-24T04:01:54;9.48;;;6.18;;
71937;SDS011;59810;48.800;9.086;2022-07-24T04:04:19;12.10;;;6.23;;
71937;SDS011;59810;48.800;9.086;2022-07-24T04:06:45;9.47;;;6.20;;
71937;SDS011;59810;48.800;9.086;2022-07-24T04:09:10;10.37;;;6.30;;
71937;SDS011;59810;48.800;9.086;2022-07-24T04:11:38;9.45;;;5.90;;
71937;SDS011;59810;48.800;9.086;2022-07-24T04:14:06;11.25;;;6.30;;
71937;SDS011;59810;48.800;9.086;2022-07-24T04:16:31;8.57;;;5.80;;
71937;SDS011;59810;48.800;9.086;2022-07-24T04:18:59;11.77;;;6.38;;
71937;SDS011;59810;48.800;9.086;2022-07-24T04:21:24;10.33;;;6.33;;
71937;SDS011;59810;48.800;9.086;2022-07-24T04:23:52;10.95;;;5.90;;
71937;SDS011;59810;48.800;9.086;2022-07-24T04:26:17;11.23;;;6.50;;
71937;SDS011;59810;48.800;9.086;2022-07-24T04:28:43;10.00;;;6.50;;
71937;SDS011;59810;48.800;9.086;2022-07-24T04:31:09;9.20;;;6.13;;
71937;SDS011;59810;48.800;9.086;2022-07-24T04:33:36;9.75;;;5.82;;
71937;SDS011;59810;48.800;9.086;2022-07-24T04:36:03;10.87;;;6.20;;
71937;SDS011;59810;48.800;9.086;2022-07-24T04:38:29;12.57;;;6.82;;
71937;SDS011;59810;48.800;9.086;2022-07-24T04:40:55;10.02;;;5.85;;
71937;SDS011;59810;48.800;9.086;2022-07-24T04:43:20;9.37;;;6.10;;
71937;SDS011;59810;48.800;9.086;2022-07-24T04:45:46;9.83;;;6.10;;
71937;SDS011;59810;48.800;9.086;2022-07-24T04:48:11;11.07;;;6.73;;
71937;SDS011;59810;48.800;9.086;2022-07-24T04:50:37;10.70;;;6.93;;
71937;SDS011;59810;48.800;9.086;2022-07-24T04:53:02;12.67;;;6.57;;
71937;SDS011;59810;48.800;9.086;2022-07-24T04:55:27;10.60;;;7.10;;
71937;SDS011;59810;48.800;9.086;2022-07-24T04:57:55;10.30;;;6.57;;
71937;SDS011;59810;48.800;9.086;2022-07-24T05:00:20;11.60;;;6.97;;
71937;SDS011;59810;48.800;9.086;2022-07-24T05:02:46;12.47;;;6.57;;
71937;SDS011;59810;48.800;9.086;2022-07-24T05:05:11;9.03;;;6.10;;
71937;SDS011;59810;48.800;9.086;2022-07-24T05:07:37;14.23;;;6.60;;
71937;SDS011;59810;48.800;9.086;2022-07-24T05:10:03;10.23;;;6.93;;
71937;SDS011;59810;48.800;9.086;2022-07-24T05:15:28;12.13;;;6.23;;
71937;SDS011;59810;48.800;9.086;2022-07-24T05:18:00;11.82;;;7.05;;
71937;SDS011;59810;48.800;9.086;2022-07-24T05:23:29;10.85;;;6.50;;
71937;SDS011;59810;48.800;9.086;2022-07-24T05:26:34;11.25;;;6.75;;
71937;SDS011;59810;48.800;9.086;2022-07-24T05:31:47;10.50;;;6.00;;
71937;SDS011;59810;48.800;9.086;2022-07-24T05:34:23;10.15;;;6.63;;
71937;SDS011;59810;48.800;9.086;2022-07-24T05:37:03;9.85;;;6.35;;
71937;SDS011;59810;48.800;9.086;2022-07-24T05:39:29;12.77;;;7.35;;
71937;SDS011;59810;48.800;9.086;2022-07-24T05:42:03;10.93;;;6.87;;
71937;SDS011;59810;48.800;9.086;2022-07-24T05:44:29;13.18;;;8.05;;
71937;SDS011;59810;48.800;9.086;2022-07-24T05:46:55;12.25;;;7.82;;
71937;SDS011;59810;48.800;9.086;2022-07-24T05:49:33;9.87;;;6.80;;
71937;SDS011;59810;48.800;9.086;2022-07-24T05:52:16;11.95;;;7.75;;
71937;SDS011;59810;48.800;9.086;2022-07-24T05:57:55;13.00;;;7.57;;
71937;SDS011;59810;48.800;9.086;2022-07-24T06:11:25;13.90;;;7.72;;
71937;SDS011;59810;48.800;9.086;2022-07-24T08:21:17;12.33;;;7.90;;
71937;SDS011;59810;48.800;9.086;2022-07-24T08:23:44;12.75;;;7.78;;
71937;SDS011;59810;48.800;9.086;2022-07-24T08:26:10;11.15;;;7.97;;
71937;SDS011;59810;48.800;9.086;2022-07-24T08:28:36;11.63;;;7.75;;
71937;SDS011;59810;48.800;9.086;2022-07-24T08:31:02;9.63;;;7.03;;
71937;SDS011;59810;48.800;9.086;2022-07-24T08:33:28;12.20;;;7.90;;
71937;SDS011;59810;48.800;9.086;2022-07-24T08:35:56;12.35;;;7.20;;
71937;SDS011;59810;48.800;9.086;2022-07-24T08:38:25;10.80;;;7.65;;
71937;SDS011;59810;48.800;9.086;2022-07-24T08:40:50;11.17;;;7.77;;
71937;SDS011;59810;48.800;9.086;2022-07-24T08:43:17;12.15;;;8.15;;
71937;SDS011;59810;48.800;9.086;2022-07-24T08:45:42;10.70;;;8.03;;
71937;SDS011;59810;48.800;9.086;2022-07-24T08:48:13;11.13;;;7.47;;
71937;SDS011;59810;48.800;9.086;2022-07-24T08:50:43;11.33;;;7.90;;
71937;SDS011;59810;48.800;9.086;2022-07-24T08:53:09;10.35;;;7.55;;
71937;SDS011;59810;48.800;9.086;2022-07-24T08:55:35;12.50;;;7.77;;
71937;SDS011;59810;48.800;9.086;2022-07-24T08:58:01;10.40;;;7.97;;
71937;SDS011;59810;48.800;9.086;2022-07-24T09:00:27;11.50;;;8.30;;
71937;SDS011;59810;48.800;9.086;2022-07-24T09:02:57;11.07;;;8.05;;
71937;SDS011;59810;48.800;9.086;2022-07-24T09:05:23;10.85;;;7.57;;
71937;SDS011;59810;48.800;9.086;2022-07-24T09:07:48;10.60;;;7.87;;
71937;SDS011;59810;48.800;9.086;2022-07-24T09:10:14;10.07;;;7.50;;
71937;SDS011;59810;48.800;9.086;2022-07-24T09:12:45;10.45;;;7.30;;
71937;SDS011;59810;48.800;9.086;2022-07-24T09:17:51;10.48;;;7.03;;
71937;SDS011;59810;48.800;9.086;2022-07-24T09:20:19;9.70;;;6.78;;
71937;SDS011;59810;48.800;9.086;2022-07-24T09:22:45;9.67;;;7.10;;
71937;SDS011;59810;48.800;9.086;2022-07-24T09:35:46;10.27;;;7.60;;
71937;SDS011;59810;48.800;9.086;2022-07-24T09:38:10;11.52;;;7.78;;
71937;SDS011;59810;48.800;9.086;2022-07-24T09:40:38;11.63;;;7.57;;
71937;SDS011;59810;48.800;9.086;2022-07-24T09:48:21;10.13;;;7.13;;
71937;SDS011;59810;48.800;9.086;2022-07-24T09:50:50;9.70;;;6.57;;
71937;SDS011;59810;48.800;9.086;2022-07-24T09:53:20;9.77;;;6.70;;
71937;SDS011;59810;48.800;9.086;2022-07-24T09:56:08;10.75;;;7.40;;
71937;SDS011;59810;48.800;9.086;2022-07-24T09:58:36;10.65;;;6.93;;
71937;SDS011;59810;48.800;9.086;2022-07-24T10:01:04;9.85;;;7.15;;
71937;SDS011;59810;48.800;9.086;2022-07-24T10:03:33;8.90;;;6.78;;
71937;SDS011;59810;48.800;9.086;2022-07-24T10:06:04;9.90;;;7.20;;
71937;SDS011;59810;48.800;9.086;2022-07-24T10:08:31;10.48;;;7.32;;
71937;SDS011;59810;48.800;9.086;2022-07-24T10:10:58;9.40;;;7.20;;
71937;SDS011;59810;48.800;9.086;2022-07-24T10:13:24;10.55;;;7.20;;
71937;SDS011;59810;48.800;9.086;2022-07-24T10:21:28;11.57;;;7.50;;
71937;SDS011;59810;48.800;9.086;2022-07-24T10:29:12;11.48;;;7.70;;
71937;SDS011;59810;48.800;9.086;2022-07-24T10:31:40;10.37;;;7.30;;
71937;SDS011;59810;48.800;9.086;2022-07-24T10:40:12;9.75;;;6.80;;
71937;SDS011;59810;48.800;9.086;2022-07-24T10:45:33;9.87;;;6.80;;
71937;SDS011;59810;48.800;9.086;2022-07-24T11:06:44;9.75;;;7.05;;
71937;SDS011;59810;48.800;9.086;2022-07-24T11:09:21;10.65;;;7.60;;
71937;SDS011;59810;48.800;9.086;2022-07-24T11:14:17;10.83;;;7.57;;
71937;SDS011;59810;48.800;9.086;2022-07-24T11:16:43;9.55;;;8.02;;
71937;SDS011;59810;48.800;9.086;2022-07-24T11:21:37;10.30;;;8.43;;
71937;SDS011;59810;48.800;9.086;2022-07-24T11:31:48;9.82;;;7.45;;
71937;SDS011;59810;48.800;9.086;2022-07-24T11:34:22;9.45;;;7.10;;
71937;SDS011;59810;48.800;9.086;2022-07-24T11:36:49;9.97;;;7.20;;
71937;SDS011;59810;48.800;9.086;2022-07-24T11:39:26;12.23;;;7.05;;
71937;SDS011;59810;48.800;9.086;2022-07-24T11:41:56;11.18;;;7.97;;
71937;SDS011;59810;48.800;9.086;2022-07-24T11:44:27;11.50;;;7.75;;
71937;SDS011;59810;48.800;9.086;2022-07-24T11:47:04;10.40;;;7.55;;
71937;SDS011;59810;48.800;9.086;2022-07-24T11:49:56;10.67;;;7.13;;
71937;SDS011;59810;48.800;9.086;2022-07-24T11:55:01;10.40;;;7.68;;
71937;SDS011;59810;48.800;9.086;2022-07-24T11:57:36;9.30;;;6.80;;
71937;SDS011;59810;48.800;9.086;2022-07-24T12:00:12;8.52;;;7.05;;
71937;SDS011;59810;48.800;9.086;2022-07-24T12:02:43;11.43;;;7.30;;
71937;SDS011;59810;48.800;9.086;2022-07-24T12:05:11;11.07;;;7.82;;
71937;SDS011;59810;48.800;9.086;2022-07-24T12:07:38;11.73;;;8.20;;
71937;SDS011;59810;48.800;9.086;2022-07-24T12:10:03;9.03;;;7.00;;
71937;SDS011;59810;48.800;9.086;2022-07-24T12:12:34;10.63;;;7.50;;
71937;SDS011;59810;48.800;9.086;2022-07-24T12:17:30;8.83;;;7.23;;
71937;SDS011;59810;48.800;9.086;2022-07-24T12:19:58;9.23;;;6.77;;
71937;SDS011;59810;48.800;9.086;2022-07-24T12:22:25;11.70;;;7.20;;
71937;SDS011;59810;48.800;9.086;2022-07-24T12:24:52;10.30;;;7.63;;
71937;SDS011;59810;48.800;9.086;2022-07-24T12:27:40;11.88;;;7.35;;
71937;SDS011;59810;48.800;9.086;2022-07-24T12:30:50;9.05;;;7.30;;
71937;SDS011;59810;48.800;9.086;2022-07-24T12:32:58;8.70;;;7.23;;
71937;SDS011;59810;48.800;9.086;2022-07-24T12:35:26;9.50;;;7.18;;
71937;SDS011;59810;48.800;9.086;2022-07-24T12:37:55;9.82;;;6.88;;
71937;SDS011;59810;48.800;9.086;2022-07-24T12:40:40;10.05;;;7.07;;
71937;SDS011;59810;48.800;9.086;2022-07-24T12:43:09;8.50;;;7.03;;
71937;SDS011;59810;48.800;9.086;2022-07-24T12:45:36;8.63;;;7.33;;
71937;SDS011;59810;48.800;9.086;2022-07-24T12:48:22;10.65;;;7.30;;
71937;SDS011;59810;48.800;9.086;2022-07-24T12:50:57;9.15;;;7.78;;
71937;SDS011;59810;48.800;9.086;2022-07-24T12:53:23;9.57;;;7.63;;
71937;SDS011;59810;48.800;9.086;2022-07-24T12:56:04;8.32;;;7.40;;
71937;SDS011;59810;48.800;9.086;2022-07-24T13:01:18;11.20;;;7.45;;
71937;SDS011;59810;48.800;9.086;2022-07-24T13:03:59;9.38;;;7.32;;
71937;SDS011;59810;48.800;9.086;2022-07-24T13:06:32;10.30;;;7.40;;
71937;SDS011;59810;48.800;9.086;2022-07-24T13:09:09;12.85;;;7.47;;
71937;SDS011;59810;48.800;9.086;2022-07-24T13:11:36;11.30;;;7.70;;
71937;SDS011;59810;48.800;9.086;2022-07-24T13:14:03;9.25;;;7.60;;
71937;SDS011;59810;48.800;9.086;2022-07-24T13:16:30;9.13;;;7.55;;
71937;SDS011;59810;48.800;9.086;2022-07-24T13:18:56;9.15;;;6.63;;
71937;SDS011;59810;48.800;9.086;2022-07-24T13:21:23;10.73;;;7.03;;
71937;SDS011;59810;48.800;9.086;2022-07-24T13:23:48;11.00;;;7.43;;
71937;SDS011;59810;48.800;9.086;2022-07-24T13:26:16;8.80;;;7.40;;
71937;SDS011;59810;48.800;9.086;2022-07-24T13:28:41;10.83;;;7.53;;
71937;SDS011;59810;48.800;9.086;2022-07-24T13:31:09;13.77;;;7.32;;
71937;SDS011;59810;48.800;9.086;2022-07-24T13:33:34;10.57;;;7.13;;
71937;SDS011;59810;48.800;9.086;2022-07-24T13:36:00;9.13;;;7.30;;
71937;SDS011;59810;48.800;9.086;2022-07-24T13:38:28;9.48;;;6.72;;
71937;SDS011;59810;48.800;9.086;2022-07-24T13:40:56;9.38;;;6.93;;
71937;SDS011;59810;48.800;9.086;2022-07-24T13:43:21;8.70;;;6.70;;
71937;SDS011;59810;48.800;9.086;2022-07-24T13:45:47;9.50;;;7.40;;
71937;SDS011;59810;48.800;9.086;2022-07-24T13:48:12;10.75;;;7.40;;
71937;SDS011;59810;48.800;9.086;2022-07-24T13:50:40;10.70;;;7.43;;
71937;SDS011;59810;48.800;9.086;2022-07-24T13:53:08;9.20;;;6.90;;
71937;SDS011;59810;48.800;9.086;2022-07-24T13:55:33;9.87;;;7.20;;
71937;SDS011;59810;48.800;9.086;2022-07-24T13:57:59;9.60;;;7.60;;
71937;SDS011;59810;48.800;9.086;2022-07-24T14:00:27;8.82;;;6.90;;
71937;SDS011;59810;48.800;9.086;2022-07-24T14:02:52;8.73;;;6.80;;
71937;SDS011;59810;48.800;9.086;2022-07-24T14:05:20;9.48;;;7.40;;
71937;SDS011;59810;48.800;9.086;2022-07-24T14:07:46;9.60;;;7.20;;
71937;SDS011;59810;48.800;9.086;2022-07-24T14:10:12;10.50;;;7.63;;
71937;SDS011;59810;48.800;9.086;2022-07-24T14:12:40;8.25;;;6.63;;
71937;SDS011;59810;48.800;9.086;2022-07-24T14:15:06;9.13;;;7.10;;
71937;SDS011;59810;48.800;9.086;2022-07-24T14:17:33;9.80;;;7.32;;
71937;SDS011;59810;48.800;9.086;2022-07-24T14:20:00;10.00;;;7.15;;
71937;SDS011;59810;48.800;9.086;2022-07-24T14:22:25;8.97;;;7.77;;
71937;SDS011;59810;48.800;9.086;2022-07-24T14:24:51;8.88;;;7.05;;
71937;SDS011;59810;48.800;9.086;2022-07-24T14:27:16;10.63;;;7.47;;
71937;SDS011;59810;48.800;9.086;2022-07-24T14:29:41;9.00;;;7.20;;
71937;SDS011;59810;48.800;9.086;2022-07-24T14:32:07;8.33;;;7.17;;
71937;SDS011;59810;48.800;9.086;2022-07-24T14:34:32;8.65;;;7.30;;
71937;SDS011;59810;48.800;9.086;2022-07-24T14:36:57;9.33;;;7.20;;
71937;SDS011;59810;48.800;9.086;2022-07-24T14:39:25;8.30;;;7.18;;
71937;SDS011;59810;48.800;9.086;2022-07-24T14:41:53;8.63;;;7.10;;
71937;SDS011;59810;48.800;9.086;2022-07-24T14:44:19;8.05;;;6.95;;
71937;SDS011;59810;48.800;9.086;2022-07-24T14:46:44;8.27;;;7.23;;
71937;SDS011;59810;48.800;9.086;2022-07-24T14:49:12;9.05;;;7.63;;
71937;SDS011;59810;48.800;9.086;2022-07-24T14:51:37;10.05;;;7.97;;
71937;SDS011;59810;48.800;9.086;2022-07-24T14:54:06;9.13;;;7.97;;
71937;SDS011;59810;48.800;9.086;2022-07-24T14:56:32;8.57;;;7.50;;
71937;SDS011;59810;48.800;9.086;2022-07-24T14:58:58;8.77;;;7.88;;
71937;SDS011;59810;48.800;9.086;2022-07-24T15:01:23;8.77;;;7.50;;
71937;SDS011;59810;48.800;9.086;2022-07-24T15:03:49;9.53;;;8.23;;
71937;SDS011;59810;48.800;9.086;2022-07-24T15:06:20;8.93;;;7.50;;
71937;SDS011;59810;48.800;9.086;2022-07-24T15:08:46;9.13;;;8.23;;
71937;SDS011;59810;48.800;9.086;2022-07-24T15:11:12;9.63;;;7.63;;
71937;SDS011;59810;48.800;9.086;2022-07-24T15:13:38;8.93;;;8.02;;
71937;SDS011;59810;48.800;9.086;2022-07-24T15:16:05;9.82;;;7.78;;
71937;SDS011;59810;48.800;9.086;2022-07-24T15:18:32;9.18;;;7.82;;
71937;SDS011;59810;48.800;9.086;2022-07-24T15:20:58;9.10;;;8.17;;
71937;SDS011;59810;48.800;9.086;2022-07-24T15:23:25;9.93;;;7.88;;
71937;SDS011;59810;48.800;9.086;2022-07-24T15:25:51;9.20;;;7.97;;
71937;SDS011;59810;48.800;9.086;2022-07-24T15:28:18;8.83;;;7.93;;
71937;SDS011;59810;48.800;9.086;2022-07-24T15:30:46;9.40;;;8.50;;
71937;SDS011;59810;48.800;9.086;2022-07-24T15:33:11;8.98;;;8.07;;
71937;SDS011;59810;48.800;9.086;2022-07-24T15:35:37;9.83;;;8.10;;
71937;SDS011;59810;48.800;9.086;2022-07-24T15:38:02;9.80;;;8.80;;
71937;SDS011;59810;48.800;9.086;2022-07-24T15:40:30;9.88;;;8.50;;
71937;SDS011;59810;48.800;9.086;2022-07-24T15:42:58;10.37;;;8.77;;
71937;SDS011;59810;48.800;9.086;2022-07-24T15:45:26;9.93;;;8.55;;
71937;SDS011;59810;48.800;9.086;2022-07-24T15:47:51;10.00;;;8.03;;
71937;SDS011;59810;48.800;9.086;2022-07-24T15:50:17;9.43;;;8.37;;
71937;SDS011;59810;48.800;9.086;2022-07-24T15:52:46;9.13;;;8.23;;
71937;SDS011;59810;48.800;9.086;2022-07-24T15:55:11;8.73;;;7.80;;
71937;SDS011;59810;48.800;9.086;2022-07-24T15:57:37;9.20;;;8.13;;
71937;SDS011;59810;48.800;9.086;2022-07-24T16:00:05;9.00;;;7.43;;
71937;SDS011;59810;48.800;9.086;2022-07-24T16:02:31;8.77;;;7.72;;
71937;SDS011;59810;48.800;9.086;2022-07-24T16:04:56;8.60;;;7.70;;
71937;SDS011;59810;48.800;9.086;2022-07-24T16:07:22;8.57;;;7.37;;
71937;SDS011;59810;48.800;9.086;2022-07-24T16:09:50;9.35;;;7.30;;
71937;SDS011;59810;48.800;9.086;2022-07-24T16:12:16;9.37;;;7.63;;
71937;SDS011;59810;48.800;9.086;2022-07-24T16:14:45;8.65;;;7.20;;
71937;SDS011;59810;48.800;9.086;2022-07-24T16:17:11;8.32;;;7.43;;
71937;SDS011;59810;48.800;9.086;2022-07-24T16:19:37;10.20;;;7.32;;
71937;SDS011;59810;48.800;9.086;2022-07-24T16:22:03;9.33;;;7.70;;
71937;SDS011;59810;48.800;9.086;2022-07-24T16:24:29;9.63;;;7.30;;
71937;SDS011;59810;48.800;9.086;2022-07-24T16:26:56;8.93;;;7.63;;
71937;SDS011;59810;48.800;9.086;2022-07-24T16:29:24;9.15;;;6.85;;
71937;SDS011;59810;48.800;9.086;2022-07-24T16:31:49;9.00;;;7.20;;
71937;SDS011;59810;48.800;9.086;2022-07-24T16:34:14;9.70;;;7.10;;
71937;SDS011;59810;48.800;9.086;2022-07-24T16:36:42;10.13;;;7.27;;
71937;SDS011;59810;48.800;9.086;2022-07-24T16:39:07;8.75;;;6.88;;
71937;SDS011;59810;48.800;9.086;2022-07-24T16:41:33;9.80;;;7.23;;
71937;SDS011;59810;48.800;9.086;2022-07-24T16:43:58;10.83;;;7.50;;
71937;SDS011;59810;48.800;9.086;2022-07-24T16:46:26;9.35;;;7.30;;
71937;SDS011;59810;48.800;9.086;2022-07-24T16:48:52;9.47;;;7.20;;
71937;SDS011;59810;48.800;9.086;2022-07-24T16:51:19;9.70;;;7.18;;
71937;SDS011;59810;48.800;9.086;2022-07-24T16:53:47;8.75;;;7.18;;
71937;SDS011;59810;48.800;9.086;2022-07-24T16:56:13;10.57;;;7.25;;
71937;SDS011;59810;48.800;9.086;2022-07-24T16:58:39;9.50;;;7.10;;
71937;SDS011;59810;48.800;9.086;2022-07-24T17:01:05;10.38;;;7.90;;
71937;SDS011;59810;48.800;9.086;2022-07-24T17:03:31;9.70;;;7.47;;
71937;SDS011;59810;48.800;9.086;2022-07-24T17:05:59;9.60;;;7.47;;
71937;SDS011;59810;48.800;9.086;2022-07-24T17:08:27;8.47;;;7.17;;
71937;SDS011;59810;48.800;9.086;2022-07-24T17:10:55;9.13;;;7.50;;
71937;SDS011;59810;48.800;9.086;2022-07-24T17:13:21;8.37;;;6.60;;
71937;SDS011;59810;48.800;9.086;2022-07-24T17:15:46;11.65;;;7.60;;
71937;SDS011;59810;48.800;9.086;2022-07-24T17:18:14;10.73;;;7.23;;
71937;SDS011;59810;48.800;9.086;2022-07-24T17:20:40;10.50;;;7.07;;
71937;SDS011;59810;48.800;9.086;2022-07-24T17:23:07;9.77;;;6.97;;
71937;SDS011;59810;48.800;9.086;2022-07-24T17:25:37;8.43;;;7.03;;
71937;SDS011;59810;48.800;9.086;2022-07-24T17:28:07;9.88;;;6.88;;
71937;SDS011;59810;48.800;9.086;2022-07-24T17:30:39;8.40;;;6.47;;
71937;SDS011;59810;48.800;9.086;2022-07-24T17:33:06;9.18;;;6.90;;
71937;SDS011;59810;48.800;9.086;2022-07-24T17:35:31;8.90;;;6.57;;
71937;SDS011;59810;48.800;9.086;2022-07-24T17:37:59;11.05;;;7.07;;
71937;SDS011;59810;48.800;9.086;2022-07-24T17:40:24;8.40;;;6.70;;
71937;SDS011;59810;48.800;9.086;2022-07-24T17:42:50;10.10;;;7.03;;
71937;SDS011;59810;48.800;9.086;2022-07-24T17:45:18;9.20;;;6.43;;
71937;SDS011;59810;48.800;9.086;2022-07-24T17:47:44;9.25;;;7.00;;
71937;SDS011;59810;48.800;9.086;2022-07-24T17:50:10;9.20;;;7.10;;
71937;SDS011;59810;48.800;9.086;2022-07-24T17:52:37;8.55;;;6.82;;
71937;SDS011;59810;48.800;9.086;2022-07-24T17:55:03;9.90;;;6.53;;
71937;SDS011;59810;48.800;9.086;2022-07-24T17:57:33;8.43;;;6.90;;
71937;SDS011;59810;48.800;9.086;2022-07-24T17:59:59;8.90;;;7.10;;
71937;SDS011;59810;48.800;9.086;2022-07-24T18:02:25;9.70;;;7.10;;
71937;SDS011;59810;48.800;9.086;2022-07-24T18:04:50;8.38;;;6.80;;
71937;SDS011;59810;48.800;9.086;2022-07-24T18:07:16;9.37;;;6.90;;
71937;SDS011;59810;48.800;9.086;2022-07-24T18:09:42;8.88;;;6.45;;
71937;SDS011;59810;48.800;9.086;2022-07-24T18:12:07;12.23;;;7.10;;
71937;SDS011;59810;48.800;9.086;2022-07-24T18:14:32;8.73;;;6.97;;
71937;SDS011;59810;48.800;9.086;2022-07-24T18:17:01;8.95;;;7.15;;
71937;SDS011;59810;48.800;9.086;2022-07-24T18:19:27;10.50;;;6.43;;
71937;SDS011;59810;48.800;9.086;2022-07-24T18:21:52;9.93;;;6.60;;
71937;SDS011;59810;48.800;9.086;2022-07-24T18:24:17;8.80;;;6.53;;
71937;SDS011;59810;48.800;9.086;2022-07-24T18:26:44;8.52;;;6.47;;
71937;SDS011;59810;48.800;9.086;2022-07-24T18:29:09;11.47;;;7.03;;